sensor_id;sensor_type;location;lat;lon;timestamp;temperature;humidity
47090;DHT22;32840;52.516;13.294;2024-03-07T00:02:09;7.80;99.90
47090;DHT22;32840;52.516;13.294;2024-03-07T00:04:53;7.80;99.90
47090;DHT22;32840;52.516;13.294;2024-03-07T00:07:40;7.90;99.90
47090;DHT22;32840;52.516;13.294;2024-03-07T00:10:29;7.90;99.90
47090;DHT22;32840;52.516;13.294;2024-03-07T00:13:14;8.00;99.90
47090;DHT22;32840;52.516;13.294;2024-03-07T00:16:00;8.00;99.90
47090;DHT22;32840;52.516;13.294;2024-03-07T00:18:46;7.90;99.90
47090;DHT22;32840;52.516;13.294;2024-03-07T00:21:41;8.00;99.90
47090;DHT22;32840;52.516;13.294;2024-03-07T00:24:27;8.00;99.90
47090;DHT22;32840;52.516;13.294;2024-03-07T00:27:19;8.00;99.90
47090;DHT22;32840;52.516;13.294;2024-03-07T00:30:08;8.00;99.90
47090;DHT22;32840;52.516;13.294;2024-03-07T00:32:55;8.00;99.90
47090;DHT22;32840;52.516;13.294;2024-03-07T00:35:43;8.00;99.90
47090;DHT22;32840;52.516;13.294;2024-03-07T00:38:30;8.00;99.90
47090;DHT22;32840;52.516;13.294;2024-03-07T00:41:15;8.10;99.90
47090;DHT22;32840;52.516;13.294;2024-03-07T00:44:22;8.10;99.90
47090;DHT22;32840;52.516;13.294;2024-03-07T00:47:08;8.10;99.90
47090;DHT22;32840;52.516;13.294;2024-03-07T00:49:55;8.00;99.90
47090;DHT22;32840;52.516;13.294;2024-03-07T00:52:42;8.10;99.90
47090;DHT22;32840;52.516;13.294;2024-03-07T00:55:26;7.90;99.90
47090;DHT22;32840;52.516;13.294;2024-03-07T00:58:12;7.90;99.90
47090;DHT22;32840;52.516;13.294;2024-03-07T01:00:59;8.00;99.90
47090;DHT22;32840;52.516;13.294;2024-03-07T01:03:47;7.90;99.90
47090;DHT22;32840;52.516;13.294;2024-03-07T01:06:32;8.00;99.90
47090;DHT22;32840;52.516;13.294;2024-03-07T01:09:17;7.90;99.90
47090;DHT22;32840;52.516;13.294;2024-03-07T01:12:03;7.90;99.90
47090;DHT22;32840;52.516;13.294;2024-03-07T01:14:50;7.80;99.90
47090;DHT22;32840;52.516;13.294;2024-03-07T01:17:36;7.80;99.90
47090;DHT22;32840;52.516;13.294;2024-03-07T01:20:22;7.90;99.90
47090;DHT22;32840;52.516;13.294;2024-03-07T01:23:12;7.90;99.90
47090;DHT22;32840;52.516;13.294;2024-03-07T01:25:58;7.90;99.90
47090;DHT22;32840;52.516;13.294;2024-03-07T01:28:43;7.90;99.90
47090;DHT22;32840;52.516;13.294;2024-03-07T01:31:28;7.90;99.90
47090;DHT22;32840;52.516;13.294;2024-03-07T01:34:13;7.90;99.90
47090;DHT22;32840;52.516;13.294;2024-03-07T01:36:59;7.90;99.90
47090;DHT22;32840;52.516;13.294;2024-03-07T01:39:51;7.90;99.90
47090;DHT22;32840;52.516;13.294;2024-03-07T01:42:36;7.90;99.90
47090;DHT22;32840;52.516;13.294;2024-03-07T01:45:21;7.80;99.90
47090;DHT22;32840;52.516;13.294;2024-03-07T01:48:25;7.80;99.90
47090;DHT22;32840;52.516;13.294;2024-03-07T01:51:10;7.60;99.90
47090;DHT22;32840;52.516;13.294;2024-03-07T01:53:56;7.60;99.90
47090;DHT22;32840;52.516;13.294;2024-03-07T01:56:42;7.50;99.90
47090;DHT22;32840;52.516;13.294;2024-03-07T01:59:27;7.50;99.90
47090;DHT22;32840;52.516;13.294;2024-03-07T02:02:14;7.60;99.90
47090;DHT22;32840;52.516;13.294;2024-03-07T02:05:06;7.60;99.90
47090;DHT22;32840;52.516;13.294;2024-03-07T02:07:51;7.60;99.90
47090;DHT22;32840;52.516;13.294;2024-03-07T02:10:35;7.60;99.90
47090;DHT22;32840;52.516;13.294;2024-03-07T02:13:21;7.60;99.90
47090;DHT22;32840;52.516;13.294;2024-03-07T02:16:06;7.60;99.90
47090;DHT22;32840;52.516;13.294;2024-03-07T02:18:52;7.60;99.90
47090;DHT22;32840;52.516;13.294;2024-03-07T02:21:37;7.50;99.90
47090;DHT22;32840;52.516;13.294;2024-03-07T02:24:24;7.50;99.90
47090;DHT22;32840;52.516;13.294;2024-03-07T02:27:09;7.60;99.90
47090;DHT22;32840;52.516;13.294;2024-03-07T02:29:54;7.60;99.90
47090;DHT22;32840;52.516;13.294;2024-03-07T02:32:40;7.60;99.90
47090;DHT22;32840;52.516;13.294;2024-03-07T02:35:35;7.50;99.90
47090;DHT22;32840;52.516;13.294;2024-03-07T02:38:20;7.50;99.90
47090;DHT22;32840;52.516;13.294;2024-03-07T02:41:05;7.40;99.90
47090;DHT22;32840;52.516;13.294;2024-03-07T02:43:51;7.30;99.90
47090;DHT22;32840;52.516;13.294;2024-03-07T02:46:36;7.30;99.90
47090;DHT22;32840;52.516;13.294;2024-03-07T02:49:23;7.30;99.90
47090;DHT22;32840;52.516;13.294;2024-03-07T02:52:08;7.20;99.90
47090;DHT22;32840;52.516;13.294;2024-03-07T02:54:53;7.30;99.90
47090;DHT22;32840;52.516;13.294;2024-03-07T02:57:38;7.30;99.90
47090;DHT22;32840;52.516;13.294;2024-03-07T03:00:25;7.40;99.90
47090;DHT22;32840;52.516;13.294;2024-03-07T03:03:14;7.50;99.90
47090;DHT22;32840;52.516;13.294;2024-03-07T03:05:59;7.30;99.90
47090;DHT22;32840;52.516;13.294;2024-03-07T03:08:44;7.30;99.90
47090;DHT22;32840;52.516;13.294;2024-03-07T03:11:31;7.10;99.90
47090;DHT22;32840;52.516;13.294;2024-03-07T03:14:16;7.00;99.90
47090;DHT22;32840;52.516;13.294;2024-03-07T03:17:04;7.00;99.90
47090;DHT22;32840;52.516;13.294;2024-03-07T03:19:50;7.00;99.90
47090;DHT22;32840;52.516;13.294;2024-03-07T03:22:36;7.00;99.90
47090;DHT22;32840;52.516;13.294;2024-03-07T03:25:21;7.00;99.90
47090;DHT22;32840;52.516;13.294;2024-03-07T03:28:07;7.10;99.90
47090;DHT22;32840;52.516;13.294;2024-03-07T03:30:57;7.10;99.90
47090;DHT22;32840;52.516;13.294;2024-03-07T03:33:55;7.10;99.90
47090;DHT22;32840;52.516;13.294;2024-03-07T03:36:40;7.10;99.90
47090;DHT22;32840;52.516;13.294;2024-03-07T03:39:26;7.10;99.90
47090;DHT22;32840;52.516;13.294;2024-03-07T03:42:11;7.10;99.90
47090;DHT22;32840;52.516;13.294;2024-03-07T03:44:58;7.10;99.90
47090;DHT22;32840;52.516;13.294;2024-03-07T03:47:44;7.10;99.90
47090;DHT22;32840;52.516;13.294;2024-03-07T03:50:29;7.00;99.90
47090;DHT22;32840;52.516;13.294;2024-03-07T03:53:14;7.10;99.90
47090;DHT22;32840;52.516;13.294;2024-03-07T03:56:00;7.00;99.90
47090;DHT22;32840;52.516;13.294;2024-03-07T03:58:45;7.00;99.90
47090;DHT22;32840;52.516;13.294;2024-03-07T04:01:34;7.00;99.90
47090;DHT22;32840;52.516;13.294;2024-03-07T04:04:22;7.00;99.90
47090;DHT22;32840;52.516;13.294;2024-03-07T04:07:14;6.90;99.90
47090;DHT22;32840;52.516;13.294;2024-03-07T04:10:03;7.00;99.90
47090;DHT22;32840;52.516;13.294;2024-03-07T04:12:50;6.90;99.90
47090;DHT22;32840;52.516;13.294;2024-03-07T04:15:36;7.00;99.90
47090;DHT22;32840;52.516;13.294;2024-03-07T04:18:24;6.90;99.90
47090;DHT22;32840;52.516;13.294;2024-03-07T04:21:10;6.80;99.90
47090;DHT22;32840;52.516;13.294;2024-03-07T04:24:00;6.80;99.90
47090;DHT22;32840;52.516;13.294;2024-03-07T04:26:46;6.70;99.90
47090;DHT22;32840;52.516;13.294;2024-03-07T04:29:32;6.60;99.90
47090;DHT22;32840;52.516;13.294;2024-03-07T04:32:17;6.60;99.90
47090;DHT22;32840;52.516;13.294;2024-03-07T04:35:05;6.50;99.90
47090;DHT22;32840;52.516;13.294;2024-03-07T04:37:52;6.40;99.90
47090;DHT22;32840;52.516;13.294;2024-03-07T04:40:42;6.40;99.90
47090;DHT22;32840;52.516;13.294;2024-03-07T04:43:32;6.40;99.90
47090;DHT22;32840;52.516;13.294;2024-03-07T04:46:21;6.40;99.90
47090;DHT22;32840;52.516;13.294;2024-03-07T04:49:06;6.20;99.90
47090;DHT22;32840;52.516;13.294;2024-03-07T04:51:54;6.20;99.90
47090;DHT22;32840;52.516;13.294;2024-03-07T04:54:40;6.20;99.90
47090;DHT22;32840;52.516;13.294;2024-03-07T04:57:25;6.10;99.90
47090;DHT22;32840;52.516;13.294;2024-03-07T05:00:13;6.00;99.90
47090;DHT22;32840;52.516;13.294;2024-03-07T05:02:58;6.00;99.90
47090;DHT22;32840;52.516;13.294;2024-03-07T05:05:46;6.00;99.90
47090;DHT22;32840;52.516;13.294;2024-03-07T05:08:36;6.10;99.90
47090;DHT22;32840;52.516;13.294;2024-03-07T05:11:31;6.00;99.90
47090;DHT22;32840;52.516;13.294;2024-03-07T05:14:15;5.90;99.90
47090;DHT22;32840;52.516;13.294;2024-03-07T05:17:02;5.90;99.90
47090;DHT22;32840;52.516;13.294;2024-03-07T05:19:58;6.00;99.90
47090;DHT22;32840;52.516;13.294;2024-03-07T05:22:45;6.00;99.90
47090;DHT22;32840;52.516;13.294;2024-03-07T05:25:34;6.00;99.90
47090;DHT22;32840;52.516;13.294;2024-03-07T05:28:22;6.00;99.90
47090;DHT22;32840;52.516;13.294;2024-03-07T05:31:07;6.00;99.90
47090;DHT22;32840;52.516;13.294;2024-03-07T05:33:55;6.00;99.90
47090;DHT22;32840;52.516;13.294;2024-03-07T05:36:41;6.00;99.90
47090;DHT22;32840;52.516;13.294;2024-03-07T05:39:29;5.90;99.90
47090;DHT22;32840;52.516;13.294;2024-03-07T05:42:18;5.90;99.90
47090;DHT22;32840;52.516;13.294;2024-03-07T05:45:03;5.90;99.90
47090;DHT22;32840;52.516;13.294;2024-03-07T05:47:52;5.90;99.90
47090;DHT22;32840;52.516;13.294;2024-03-07T05:50:38;5.90;99.90
47090;DHT22;32840;52.516;13.294;2024-03-07T05:53:24;5.90;99.90
47090;DHT22;32840;52.516;13.294;2024-03-07T05:56:13;5.90;99.90
47090;DHT22;32840;52.516;13.294;2024-03-07T05:59:00;5.90;99.90
47090;DHT22;32840;52.516;13.294;2024-03-07T06:01:45;6.00;99.90
47090;DHT22;32840;52.516;13.294;2024-03-07T06:04:33;5.80;99.90
47090;DHT22;32840;52.516;13.294;2024-03-07T06:07:21;5.90;99.90
47090;DHT22;32840;52.516;13.294;2024-03-07T06:10:09;5.90;99.90
47090;DHT22;32840;52.516;13.294;2024-03-07T06:13:04;5.80;99.90
47090;DHT22;32840;52.516;13.294;2024-03-07T06:15:50;5.80;99.90
47090;DHT22;32840;52.516;13.294;2024-03-07T06:18:34;5.70;99.90
47090;DHT22;32840;52.516;13.294;2024-03-07T06:21:23;5.70;99.90
47090;DHT22;32840;52.516;13.294;2024-03-07T06:24:09;5.70;99.90
47090;DHT22;32840;52.516;13.294;2024-03-07T06:26:57;5.70;99.90
47090;DHT22;32840;52.516;13.294;2024-03-07T06:29:49;5.70;99.90
47090;DHT22;32840;52.516;13.294;2024-03-07T06:32:35;5.70;99.90
47090;DHT22;32840;52.516;13.294;2024-03-07T06:35:20;5.60;99.90
47090;DHT22;32840;52.516;13.294;2024-03-07T06:38:07;5.60;99.90
47090;DHT22;32840;52.516;13.294;2024-03-07T06:40:58;5.60;99.90
47090;DHT22;32840;52.516;13.294;2024-03-07T06:43:46;5.60;99.90
47090;DHT22;32840;52.516;13.294;2024-03-07T06:46:32;5.70;99.90
47090;DHT22;32840;52.516;13.294;2024-03-07T06:49:18;5.70;99.90
47090;DHT22;32840;52.516;13.294;2024-03-07T06:52:03;5.60;99.90
47090;DHT22;32840;52.516;13.294;2024-03-07T06:54:48;5.50;99.90
47090;DHT22;32840;52.516;13.294;2024-03-07T06:57:33;5.60;99.90
47090;DHT22;32840;52.516;13.294;2024-03-07T07:00:20;5.50;99.90
47090;DHT22;32840;52.516;13.294;2024-03-07T07:03:17;5.60;99.90
47090;DHT22;32840;52.516;13.294;2024-03-07T07:06:04;5.60;99.90
47090;DHT22;32840;52.516;13.294;2024-03-07T07:08:50;5.60;99.90
47090;DHT22;32840;52.516;13.294;2024-03-07T07:11:36;5.70;99.90
47090;DHT22;32840;52.516;13.294;2024-03-07T07:14:23;5.60;99.90
47090;DHT22;32840;52.516;13.294;2024-03-07T07:17:16;5.70;99.90
47090;DHT22;32840;52.516;13.294;2024-03-07T07:20:01;5.70;99.90
47090;DHT22;32840;52.516;13.294;2024-03-07T07:22:54;5.70;99.90
47090;DHT22;32840;52.516;13.294;2024-03-07T07:25:39;5.70;99.90
47090;DHT22;32840;52.516;13.294;2024-03-07T07:28:25;5.70;99.90
47090;DHT22;32840;52.516;13.294;2024-03-07T07:31:10;5.70;99.90
47090;DHT22;32840;52.516;13.294;2024-03-07T07:34:01;5.70;99.90
47090;DHT22;32840;52.516;13.294;2024-03-07T07:36:51;5.70;99.90
47090;DHT22;32840;52.516;13.294;2024-03-07T07:39:41;5.80;99.90
47090;DHT22;32840;52.516;13.294;2024-03-07T07:42:26;5.80;99.90
47090;DHT22;32840;52.516;13.294;2024-03-07T07:45:16;5.90;99.90
47090;DHT22;32840;52.516;13.294;2024-03-07T07:48:03;5.90;99.90
47090;DHT22;32840;52.516;13.294;2024-03-07T07:50:50;5.80;99.90
47090;DHT22;32840;52.516;13.294;2024-03-07T07:53:36;5.90;99.90
47090;DHT22;32840;52.516;13.294;2024-03-07T07:56:20;6.00;99.90
47090;DHT22;32840;52.516;13.294;2024-03-07T07:59:05;6.00;99.90
47090;DHT22;32840;52.516;13.294;2024-03-07T08:01:50;6.10;99.90
47090;DHT22;32840;52.516;13.294;2024-03-07T08:04:37;6.20;99.90
47090;DHT22;32840;52.516;13.294;2024-03-07T08:07:22;6.30;99.90
47090;DHT22;32840;52.516;13.294;2024-03-07T08:10:07;6.30;99.90
47090;DHT22;32840;52.516;13.294;2024-03-07T08:12:53;6.30;99.90
47090;DHT22;32840;52.516;13.294;2024-03-07T08:15:38;6.40;99.90
47090;DHT22;32840;52.516;13.294;2024-03-07T08:18:23;6.40;99.90
47090;DHT22;32840;52.516;13.294;2024-03-07T08:21:08;6.50;99.90
47090;DHT22;32840;52.516;13.294;2024-03-07T08:23:55;6.60;99.90
47090;DHT22;32840;52.516;13.294;2024-03-07T08:26:40;6.70;99.90
47090;DHT22;32840;52.516;13.294;2024-03-07T08:29:33;6.80;99.90
47090;DHT22;32840;52.516;13.294;2024-03-07T08:32:18;6.80;99.90
47090;DHT22;32840;52.516;13.294;2024-03-07T08:35:08;6.80;99.90
47090;DHT22;32840;52.516;13.294;2024-03-07T08:37:54;7.00;99.90
47090;DHT22;32840;52.516;13.294;2024-03-07T08:40:41;7.20;99.90
47090;DHT22;32840;52.516;13.294;2024-03-07T08:43:28;7.40;99.90
47090;DHT22;32840;52.516;13.294;2024-03-07T08:46:14;7.60;99.90
47090;DHT22;32840;52.516;13.294;2024-03-07T08:48:59;7.90;99.90
47090;DHT22;32840;52.516;13.294;2024-03-07T08:51:43;8.10;99.90
47090;DHT22;32840;52.516;13.294;2024-03-07T08:54:28;8.20;99.90
47090;DHT22;32840;52.516;13.294;2024-03-07T08:57:19;8.10;99.90
47090;DHT22;32840;52.516;13.294;2024-03-07T09:00:09;8.20;99.40
47090;DHT22;32840;52.516;13.294;2024-03-07T09:02:57;8.40;98.40
47090;DHT22;32840;52.516;13.294;2024-03-07T09:05:44;8.60;97.70
47090;DHT22;32840;52.516;13.294;2024-03-07T09:08:30;8.80;95.30
47090;DHT22;32840;52.516;13.294;2024-03-07T09:11:18;8.80;94.60
47090;DHT22;32840;52.516;13.294;2024-03-07T09:14:06;8.80;93.20
47090;DHT22;32840;52.516;13.294;2024-03-07T09:16:55;8.90;92.40
47090;DHT22;32840;52.516;13.294;2024-03-07T09:19:47;9.00;91.40
47090;DHT22;32840;52.516;13.294;2024-03-07T09:22:45;8.90;90.20
47090;DHT22;32840;52.516;13.294;2024-03-07T09:25:38;9.00;90.40
47090;DHT22;32840;52.516;13.294;2024-03-07T09:28:30;9.10;89.20
47090;DHT22;32840;52.516;13.294;2024-03-07T09:31:14;9.00;88.60
47090;DHT22;32840;52.516;13.294;2024-03-07T09:34:02;9.00;87.00
47090;DHT22;32840;52.516;13.294;2024-03-07T09:36:48;9.00;87.80
47090;DHT22;32840;52.516;13.294;2024-03-07T09:39:36;9.10;87.10
47090;DHT22;32840;52.516;13.294;2024-03-07T09:42:21;9.10;85.50
47090;DHT22;32840;52.516;13.294;2024-03-07T09:45:08;8.90;82.30
47090;DHT22;32840;52.516;13.294;2024-03-07T09:47:53;8.70;83.80
47090;DHT22;32840;52.516;13.294;2024-03-07T09:50:38;8.70;85.50
47090;DHT22;32840;52.516;13.294;2024-03-07T09:53:24;8.80;85.20
47090;DHT22;32840;52.516;13.294;2024-03-07T09:56:11;8.80;83.80
47090;DHT22;32840;52.516;13.294;2024-03-07T09:58:58;8.70;82.80
47090;DHT22;32840;52.516;13.294;2024-03-07T10:01:47;8.60;82.80
47090;DHT22;32840;52.516;13.294;2024-03-07T10:04:54;8.70;83.80
47090;DHT22;32840;52.516;13.294;2024-03-07T10:07:42;8.70;82.60
47090;DHT22;32840;52.516;13.294;2024-03-07T10:10:33;8.70;84.40
47090;DHT22;32840;52.516;13.294;2024-03-07T10:13:18;8.80;81.50
47090;DHT22;32840;52.516;13.294;2024-03-07T10:16:07;8.90;80.50
47090;DHT22;32840;52.516;13.294;2024-03-07T10:18:57;9.00;80.30
47090;DHT22;32840;52.516;13.294;2024-03-07T10:21:59;8.90;79.10
47090;DHT22;32840;52.516;13.294;2024-03-07T10:24:50;9.00;79.40
47090;DHT22;32840;52.516;13.294;2024-03-07T10:27:38;9.10;79.20
47090;DHT22;32840;52.516;13.294;2024-03-07T10:30:25;9.20;80.10
47090;DHT22;32840;52.516;13.294;2024-03-07T10:33:12;9.20;77.80
47090;DHT22;32840;52.516;13.294;2024-03-07T10:35:57;9.20;77.80
47090;DHT22;32840;52.516;13.294;2024-03-07T10:38:43;9.20;77.20
47090;DHT22;32840;52.516;13.294;2024-03-07T10:41:28;9.20;76.00
47090;DHT22;32840;52.516;13.294;2024-03-07T10:44:25;9.20;75.10
47090;DHT22;32840;52.516;13.294;2024-03-07T10:47:19;9.20;75.00
47090;DHT22;32840;52.516;13.294;2024-03-07T10:53:45;9.20;75.20
47090;DHT22;32840;52.516;13.294;2024-03-07T10:56:56;9.20;73.80
47090;DHT22;32840;52.516;13.294;2024-03-07T10:59:50;9.20;73.20
47090;DHT22;32840;52.516;13.294;2024-03-07T11:02:46;9.10;73.20
47090;DHT22;32840;52.516;13.294;2024-03-07T11:05:37;9.10;72.60
47090;DHT22;32840;52.516;13.294;2024-03-07T11:08:22;9.00;72.60
47090;DHT22;32840;52.516;13.294;2024-03-07T11:11:07;9.00;72.90
47090;DHT22;32840;52.516;13.294;2024-03-07T11:13:53;9.00;72.00
47090;DHT22;32840;52.516;13.294;2024-03-07T11:16:40;8.80;72.40
47090;DHT22;32840;52.516;13.294;2024-03-07T11:19:31;8.80;72.50
47090;DHT22;32840;52.516;13.294;2024-03-07T11:22:34;8.90;71.70
47090;DHT22;32840;52.516;13.294;2024-03-07T11:25:30;9.00;71.00
47090;DHT22;32840;52.516;13.294;2024-03-07T11:28:28;9.00;70.90
47090;DHT22;32840;52.516;13.294;2024-03-07T11:34:15;9.00;70.80
47090;DHT22;32840;52.516;13.294;2024-03-07T11:37:04;9.00;71.10
47090;DHT22;32840;52.516;13.294;2024-03-07T11:39:53;9.10;71.70
47090;DHT22;32840;52.516;13.294;2024-03-07T11:42:45;9.10;71.40
47090;DHT22;32840;52.516;13.294;2024-03-07T11:45:33;9.20;70.30
47090;DHT22;32840;52.516;13.294;2024-03-07T11:48:33;9.20;70.70
47090;DHT22;32840;52.516;13.294;2024-03-07T11:51:19;9.20;70.70
47090;DHT22;32840;52.516;13.294;2024-03-07T11:54:11;9.40;71.40
47090;DHT22;32840;52.516;13.294;2024-03-07T11:57:00;9.30;70.60
47090;DHT22;32840;52.516;13.294;2024-03-07T11:59:47;9.20;69.60
47090;DHT22;32840;52.516;13.294;2024-03-07T12:02:40;9.20;70.90
47090;DHT22;32840;52.516;13.294;2024-03-07T12:05:26;9.30;71.00
47090;DHT22;32840;52.516;13.294;2024-03-07T12:08:15;9.30;70.10
47090;DHT22;32840;52.516;13.294;2024-03-07T12:10:59;9.40;68.70
47090;DHT22;32840;52.516;13.294;2024-03-07T12:13:44;9.50;69.00
47090;DHT22;32840;52.516;13.294;2024-03-07T12:16:30;9.50;69.80
47090;DHT22;32840;52.516;13.294;2024-03-07T12:19:16;9.40;69.90
47090;DHT22;32840;52.516;13.294;2024-03-07T12:22:03;9.20;69.70
47090;DHT22;32840;52.516;13.294;2024-03-07T12:25:03;9.30;70.30
47090;DHT22;32840;52.516;13.294;2024-03-07T12:28:10;9.30;70.00
47090;DHT22;32840;52.516;13.294;2024-03-07T12:31:25;9.40;70.30
47090;DHT22;32840;52.516;13.294;2024-03-07T12:34:11;9.40;70.50
47090;DHT22;32840;52.516;13.294;2024-03-07T12:36:59;9.30;69.60
47090;DHT22;32840;52.516;13.294;2024-03-07T12:39:48;9.30;69.90
47090;DHT22;32840;52.516;13.294;2024-03-07T12:42:50;9.40;69.70
47090;DHT22;32840;52.516;13.294;2024-03-07T12:45:50;9.40;70.00
47090;DHT22;32840;52.516;13.294;2024-03-07T12:48:37;9.40;69.10
47090;DHT22;32840;52.516;13.294;2024-03-07T12:51:23;9.30;69.80
47090;DHT22;32840;52.516;13.294;2024-03-07T12:54:18;9.30;69.00
47090;DHT22;32840;52.516;13.294;2024-03-07T12:57:12;9.30;67.30
47090;DHT22;32840;52.516;13.294;2024-03-07T12:59:57;9.30;65.90
47090;DHT22;32840;52.516;13.294;2024-03-07T13:02:43;9.30;65.00
47090;DHT22;32840;52.516;13.294;2024-03-07T13:05:29;9.40;65.60
47090;DHT22;32840;52.516;13.294;2024-03-07T13:08:15;9.40;66.30
47090;DHT22;32840;52.516;13.294;2024-03-07T13:10:59;9.30;67.10
47090;DHT22;32840;52.516;13.294;2024-03-07T13:13:46;9.40;67.40
47090;DHT22;32840;52.516;13.294;2024-03-07T13:16:35;9.40;64.70
47090;DHT22;32840;52.516;13.294;2024-03-07T13:19:20;9.40;64.20
47090;DHT22;32840;52.516;13.294;2024-03-07T13:22:06;9.30;62.60
47090;DHT22;32840;52.516;13.294;2024-03-07T13:24:52;9.30;64.00
47090;DHT22;32840;52.516;13.294;2024-03-07T13:27:37;9.40;62.70
47090;DHT22;32840;52.516;13.294;2024-03-07T13:30:31;9.40;60.90
47090;DHT22;32840;52.516;13.294;2024-03-07T13:33:17;9.50;62.50
47090;DHT22;32840;52.516;13.294;2024-03-07T13:36:12;9.50;61.90
47090;DHT22;32840;52.516;13.294;2024-03-07T13:39:06;9.60;61.80
47090;DHT22;32840;52.516;13.294;2024-03-07T13:41:56;9.60;61.60
47090;DHT22;32840;52.516;13.294;2024-03-07T13:44:43;9.50;62.30
47090;DHT22;32840;52.516;13.294;2024-03-07T13:47:30;9.50;62.60
47090;DHT22;32840;52.516;13.294;2024-03-07T13:50:21;9.50;62.80
47090;DHT22;32840;52.516;13.294;2024-03-07T13:53:09;9.60;61.40
47090;DHT22;32840;52.516;13.294;2024-03-07T13:56:28;9.60;60.00
47090;DHT22;32840;52.516;13.294;2024-03-07T13:59:48;9.60;59.90
47090;DHT22;32840;52.516;13.294;2024-03-07T14:03:10;9.50;59.90
47090;DHT22;32840;52.516;13.294;2024-03-07T14:06:26;9.40;61.40
47090;DHT22;32840;52.516;13.294;2024-03-07T14:13:49;9.30;60.30
47090;DHT22;32840;52.516;13.294;2024-03-07T14:32:59;9.60;61.70
47090;DHT22;32840;52.516;13.294;2024-03-07T14:36:18;9.50;62.90
47090;DHT22;32840;52.516;13.294;2024-03-07T14:39:05;9.50;64.10
47090;DHT22;32840;52.516;13.294;2024-03-07T14:42:01;9.40;63.10
47090;DHT22;32840;52.516;13.294;2024-03-07T14:44:48;9.40;63.40
47090;DHT22;32840;52.516;13.294;2024-03-07T14:47:34;9.50;63.40
47090;DHT22;32840;52.516;13.294;2024-03-07T14:50:27;9.50;62.10
47090;DHT22;32840;52.516;13.294;2024-03-07T14:53:18;9.50;63.20
47090;DHT22;32840;52.516;13.294;2024-03-07T14:56:09;9.50;63.60
47090;DHT22;32840;52.516;13.294;2024-03-07T14:58:55;9.50;62.60
47090;DHT22;32840;52.516;13.294;2024-03-07T15:01:41;9.40;62.00
47090;DHT22;32840;52.516;13.294;2024-03-07T15:04:29;9.30;61.60
47090;DHT22;32840;52.516;13.294;2024-03-07T15:07:18;9.20;62.30
47090;DHT22;32840;52.516;13.294;2024-03-07T15:10:17;9.10;63.10
47090;DHT22;32840;52.516;13.294;2024-03-07T15:13:04;9.10;63.10
47090;DHT22;32840;52.516;13.294;2024-03-07T15:15:49;9.20;63.50
47090;DHT22;32840;52.516;13.294;2024-03-07T15:18:34;9.20;63.10
47090;DHT22;32840;52.516;13.294;2024-03-07T15:21:23;9.20;62.10
47090;DHT22;32840;52.516;13.294;2024-03-07T15:24:09;9.20;62.40
47090;DHT22;32840;52.516;13.294;2024-03-07T15:26:54;9.20;61.70
47090;DHT22;32840;52.516;13.294;2024-03-07T15:29:46;9.10;60.50
47090;DHT22;32840;52.516;13.294;2024-03-07T15:32:35;9.20;60.70
47090;DHT22;32840;52.516;13.294;2024-03-07T15:35:21;9.10;60.80
47090;DHT22;32840;52.516;13.294;2024-03-07T15:38:12;9.00;61.50
47090;DHT22;32840;52.516;13.294;2024-03-07T15:41:06;9.00;61.50
47090;DHT22;32840;52.516;13.294;2024-03-07T15:43:56;9.00;62.50
47090;DHT22;32840;52.516;13.294;2024-03-07T15:46:42;9.00;62.60
47090;DHT22;32840;52.516;13.294;2024-03-07T15:49:39;9.00;62.90
47090;DHT22;32840;52.516;13.294;2024-03-07T15:52:31;9.00;62.80
47090;DHT22;32840;52.516;13.294;2024-03-07T15:55:25;9.00;63.40
47090;DHT22;32840;52.516;13.294;2024-03-07T15:58:13;9.10;63.80
47090;DHT22;32840;52.516;13.294;2024-03-07T16:01:02;9.10;63.40
47090;DHT22;32840;52.516;13.294;2024-03-07T16:03:59;9.00;63.40
47090;DHT22;32840;52.516;13.294;2024-03-07T16:07:12;9.00;63.30
47090;DHT22;32840;52.516;13.294;2024-03-07T16:09:57;9.00;64.20
47090;DHT22;32840;52.516;13.294;2024-03-07T16:12:43;8.90;64.70
47090;DHT22;32840;52.516;13.294;2024-03-07T16:15:29;8.90;64.70
47090;DHT22;32840;52.516;13.294;2024-03-07T16:18:16;8.90;66.00
47090;DHT22;32840;52.516;13.294;2024-03-07T16:21:22;8.90;65.40
47090;DHT22;32840;52.516;13.294;2024-03-07T16:24:09;8.80;65.10
47090;DHT22;32840;52.516;13.294;2024-03-07T16:26:58;8.70;65.50
47090;DHT22;32840;52.516;13.294;2024-03-07T16:29:48;8.70;65.70
47090;DHT22;32840;52.516;13.294;2024-03-07T16:32:40;8.70;66.00
47090;DHT22;32840;52.516;13.294;2024-03-07T16:35:52;8.60;66.30
47090;DHT22;32840;52.516;13.294;2024-03-07T16:38:59;8.60;66.90
47090;DHT22;32840;52.516;13.294;2024-03-07T16:41:51;8.60;67.20
47090;DHT22;32840;52.516;13.294;2024-03-07T16:44:38;8.60;67.50
47090;DHT22;32840;52.516;13.294;2024-03-07T16:47:28;8.60;67.50
47090;DHT22;32840;52.516;13.294;2024-03-07T16:50:16;8.60;67.80
47090;DHT22;32840;52.516;13.294;2024-03-07T16:53:08;8.60;68.00
47090;DHT22;32840;52.516;13.294;2024-03-07T16:56:10;8.60;68.00
47090;DHT22;32840;52.516;13.294;2024-03-07T16:58:57;8.60;68.40
47090;DHT22;32840;52.516;13.294;2024-03-07T17:01:45;8.60;69.10
47090;DHT22;32840;52.516;13.294;2024-03-07T17:04:30;8.50;69.00
47090;DHT22;32840;52.516;13.294;2024-03-07T17:07:15;8.50;69.20
47090;DHT22;32840;52.516;13.294;2024-03-07T17:10:00;8.40;69.60
47090;DHT22;32840;52.516;13.294;2024-03-07T17:13:07;8.30;69.60
47090;DHT22;32840;52.516;13.294;2024-03-07T17:16:19;8.30;70.10
47090;DHT22;32840;52.516;13.294;2024-03-07T17:19:06;8.30;70.40
47090;DHT22;32840;52.516;13.294;2024-03-07T17:22:00;8.30;70.70
47090;DHT22;32840;52.516;13.294;2024-03-07T17:24:49;8.30;71.10
47090;DHT22;32840;52.516;13.294;2024-03-07T17:27:42;8.30;71.00
47090;DHT22;32840;52.516;13.294;2024-03-07T17:30:39;8.30;71.10
47090;DHT22;32840;52.516;13.294;2024-03-07T17:33:29;8.20;71.20
47090;DHT22;32840;52.516;13.294;2024-03-07T17:36:14;8.20;71.50
47090;DHT22;32840;52.516;13.294;2024-03-07T17:39:02;8.20;71.80
47090;DHT22;32840;52.516;13.294;2024-03-07T17:42:00;8.20;72.00
47090;DHT22;32840;52.516;13.294;2024-03-07T17:44:54;8.20;73.00
47090;DHT22;32840;52.516;13.294;2024-03-07T17:47:41;8.20;72.50
47090;DHT22;32840;52.516;13.294;2024-03-07T17:50:32;8.20;72.40
47090;DHT22;32840;52.516;13.294;2024-03-07T17:53:20;8.20;72.60
47090;DHT22;32840;52.516;13.294;2024-03-07T17:56:09;8.30;72.30
47090;DHT22;32840;52.516;13.294;2024-03-07T17:58:56;8.30;71.90
47090;DHT22;32840;52.516;13.294;2024-03-07T18:01:41;8.20;71.90
47090;DHT22;32840;52.516;13.294;2024-03-07T18:04:27;8.20;71.90
47090;DHT22;32840;52.516;13.294;2024-03-07T18:07:18;8.20;72.00
47090;DHT22;32840;52.516;13.294;2024-03-07T18:10:08;8.10;72.00
47090;DHT22;32840;52.516;13.294;2024-03-07T18:13:27;8.10;72.20
47090;DHT22;32840;52.516;13.294;2024-03-07T18:19:49;8.00;71.70